createdAt,value
2017-11-20T00:00:44.340Z,8.17
2017-11-20T00:01:54.145Z,8.17
2017-11-20T00:03:04.270Z,8.22
2017-11-20T00:04:14.071Z,8.13
2017-11-20T00:05:24.159Z,8.19
2017-11-20T00:06:33.712Z,8.16
2017-11-20T00:07:43.537Z,8.17
2017-11-20T00:08:53.364Z,8.24
2017-11-20T00:10:03.447Z,8.25
2017-11-20T00:11:13.530Z,8.16
2017-11-20T00:12:23.862Z,8.14
2017-11-20T00:13:33.929Z,8.16
2017-11-20T00:14:43.822Z,8.22
2017-11-20T00:15:53.636Z,8.22
2017-11-20T00:17:03.737Z,8.24
2017-11-20T00:18:13.293Z,8.24
2017-11-20T00:19:22.837Z,8.17
2017-11-20T00:20:32.765Z,8.16
2017-11-20T00:21:42.822Z,8.26
2017-11-20T00:22:52.638Z,8.13
2017-11-20T00:24:02.463Z,8.24
2017-11-20T00:25:12.534Z,8.25
2017-11-20T00:26:22.602Z,8.17
2017-11-20T00:27:32.688Z,8.24
2017-11-20T00:28:42.514Z,8.17
2017-11-20T00:29:52.059Z,8.16
2017-11-20T00:31:01.877Z,8.14
2017-11-20T00:32:11.700Z,8.16
2017-11-20T00:33:21.761Z,8.14
2017-11-20T00:34:31.857Z,8.21
2017-11-20T00:35:42.539Z,8.21
2017-11-20T00:36:52.071Z,8.22
2017-11-20T00:38:01.883Z,8.19
2017-11-20T00:39:11.158Z,8.14
2017-11-20T00:40:21.226Z,8.16
2017-11-20T00:41:31.306Z,8.1
2017-11-20T00:42:41.152Z,8.17
2017-11-20T00:43:51.238Z,8.13
2017-11-20T00:45:01.042Z,8.14
2017-11-20T00:46:11.118Z,8.13
2017-11-20T00:47:20.921Z,8.17
2017-11-20T00:48:30.730Z,8.16
2017-11-20T00:49:40.549Z,8.14
2017-11-20T00:50:50.648Z,8.17
2017-11-20T00:52:00.715Z,8.22
2017-11-20T00:53:10.785Z,8.13
2017-11-20T00:54:20.887Z,8.19
2017-11-20T00:55:31.023Z,8.19
2017-11-20T00:56:41.088Z,8.16
2017-11-20T00:57:51.161Z,8.16
2017-11-20T00:59:00.981Z,8.24
2017-11-20T01:00:10.819Z,8.21
2017-11-20T01:01:20.904Z,8.16
2017-11-20T01:02:30.468Z,8.17
2017-11-20T01:03:41.533Z,8.24
2017-11-20T01:04:51.606Z,8.11
2017-11-20T01:06:01.415Z,8.19
2017-11-20T01:07:11.241Z,8.22
2017-11-20T01:08:21.037Z,8.21
2017-11-20T01:09:30.835Z,8.29
2017-11-20T01:10:40.636Z,8.21
2017-11-20T01:11:50.176Z,8.28
2017-11-20T01:13:00.245Z,8.16
2017-11-20T01:14:10.041Z,8.22
2017-11-20T01:15:20.103Z,8.25
2017-11-20T01:16:30.173Z,8.26
2017-11-20T01:17:40.259Z,8.28
2017-11-20T01:18:50.324Z,8.17
2017-11-20T01:20:00.399Z,8.21
2017-11-20T01:21:10.220Z,8.22
2017-11-20T01:22:20.031Z,8.17
2017-11-20T01:23:30.101Z,8.25
2017-11-20T01:24:40.189Z,8.29
2017-11-20T01:25:50.264Z,8.31
2017-11-20T01:27:00.341Z,8.31
2017-11-20T01:28:10.407Z,8.39
2017-11-20T01:29:20.473Z,8.4
2017-11-20T01:30:30.550Z,8.46
2017-11-20T01:31:40.348Z,8.46
2017-11-20T01:32:50.174Z,8.53
2017-11-20T01:33:59.973Z,8.46
2017-11-20T01:35:09.800Z,8.47
2017-11-20T01:36:19.933Z,8.47
2017-11-20T01:37:30.001Z,8.46
2017-11-20T01:38:40.114Z,8.49
2017-11-20T01:39:50.196Z,8.58
2017-11-20T01:41:00.011Z,8.58
2017-11-20T01:42:10.125Z,8.61
2017-11-20T01:43:20.196Z,8.65
2017-11-20T01:44:30.012Z,8.74
2017-11-20T01:45:40.086Z,8.71
2017-11-20T01:46:50.181Z,8.72
2017-11-20T01:47:59.761Z,8.71
2017-11-20T01:49:09.835Z,8.69
2017-11-20T01:50:19.925Z,8.77
2017-11-20T01:51:29.793Z,8.82
2017-11-20T01:52:39.877Z,8.87
2017-11-20T01:53:49.989Z,8.83
2017-11-20T01:55:00.066Z,8.77
2017-11-20T01:56:09.863Z,8.68
2017-11-20T01:57:19.656Z,8.64
2017-11-20T01:58:29.749Z,8.61
2017-11-20T01:59:39.306Z,8.6
2017-11-20T02:00:49.116Z,8.58
2017-11-20T02:01:59.198Z,8.6
2017-11-20T02:03:09.004Z,8.49
2017-11-20T02:04:18.280Z,8.57
2017-11-20T02:05:28.083Z,8.46
2017-11-20T02:06:37.874Z,8.58
2017-11-20T02:07:47.686Z,8.57
2017-11-20T02:08:56.697Z,8.6
2017-11-20T02:10:06.781Z,8.44
2017-11-20T02:11:16.858Z,8.54
2017-11-20T02:12:26.950Z,8.62
2017-11-20T02:13:37.385Z,8.49
2017-11-20T02:14:47.456Z,8.44
2017-11-20T02:15:57.260Z,8.49
2017-11-20T02:17:06.798Z,8.43
2017-11-20T02:18:16.599Z,8.47
2017-11-20T02:19:26.453Z,8.47
2017-11-20T02:20:36.524Z,8.46
2017-11-20T02:21:46.585Z,8.5
2017-11-20T02:22:56.674Z,8.44
2017-11-20T02:24:06.507Z,8.47
2017-11-20T02:25:16.596Z,8.47
2017-11-20T02:26:26.665Z,8.57
2017-11-20T02:27:36.459Z,8.44
2017-11-20T02:28:46.270Z,8.64
2017-11-20T02:29:56.076Z,8.49
2017-11-20T02:31:05.893Z,8.53
2017-11-20T02:32:15.993Z,8.47
2017-11-20T02:33:26.061Z,8.46
2017-11-20T02:34:35.878Z,8.46
2017-11-20T02:35:45.708Z,8.49
2017-11-20T02:36:55.810Z,8.5
2017-11-20T02:38:05.617Z,8.4
2017-11-20T02:39:15.710Z,8.43
2017-11-20T02:40:25.806Z,8.47
2017-11-20T02:41:35.897Z,8.43
2017-11-20T02:42:46.044Z,8.47
2017-11-20T02:43:56.146Z,8.44
2017-11-20T02:45:05.961Z,8.61
2017-11-20T02:46:15.779Z,8.47
2017-11-20T02:47:25.637Z,8.46
2017-11-20T02:48:35.437Z,8.47
2017-11-20T02:49:45.250Z,8.46
2017-11-20T02:50:55.318Z,8.4
2017-11-20T02:52:06.100Z,8.46
2017-11-20T02:53:15.640Z,8.5
2017-11-20T02:54:25.757Z,8.46
2017-11-20T02:55:35.615Z,8.6
2017-11-20T02:56:45.712Z,8.54
2017-11-20T02:57:55.773Z,8.54
2017-11-20T02:59:05.064Z,8.58
2017-11-20T03:00:14.935Z,8.57
2017-11-20T03:01:24.747Z,8.6
2017-11-20T03:33:24.916Z,6.09
2017-11-20T03:34:35.008Z,6.02
2017-11-20T03:35:45.080Z,5.96
2017-11-20T03:36:55.159Z,6
2017-11-20T03:38:04.951Z,6.13
2017-11-20T03:39:14.484Z,6.17
2017-11-20T03:40:25.461Z,6.36
2017-11-20T03:41:35.542Z,6.33
2017-11-20T03:42:45.354Z,6.47
2017-11-20T03:43:55.415Z,6.67
2017-11-20T03:45:05.234Z,6.73
2017-11-20T03:46:14.791Z,6.85
2017-11-20T03:47:24.850Z,6.93
2017-11-20T03:48:34.933Z,7.03
2017-11-20T03:49:44.738Z,7.13
2017-11-20T03:50:54.326Z,7.22
2017-11-20T03:52:04.397Z,7.33
2017-11-20T03:53:13.938Z,7.49
2017-11-20T03:54:23.996Z,7.47
2017-11-20T03:55:34.063Z,7.58
2017-11-20T03:56:43.879Z,7.61
2017-11-20T03:57:53.413Z,7.63
2017-11-20T03:59:03.237Z,7.77
2017-11-20T04:00:12.772Z,7.77
2017-11-20T04:01:22.841Z,7.86
2017-11-20T04:02:32.978Z,7.88
2017-11-20T04:03:43.050Z,7.92
2017-11-20T04:04:53.127Z,8.04
2017-11-20T04:06:03.202Z,8.06
2017-11-20T04:07:13.003Z,8.07
2017-11-20T04:08:23.108Z,8.11
2017-11-20T04:09:33.174Z,8.17
2017-11-20T04:10:42.973Z,8.17
2017-11-20T04:11:52.774Z,8.25
2017-11-20T04:13:02.846Z,8.26
2017-11-20T04:14:12.665Z,8.26
2017-11-20T04:15:22.497Z,8.26
2017-11-20T04:16:32.583Z,8.29
2017-11-20T04:17:42.410Z,8.22
2017-11-20T04:18:52.224Z,8.22
2017-11-20T04:20:02.351Z,8.22
2017-11-20T04:21:12.443Z,8.28
2017-11-20T04:22:22.515Z,8.17
2017-11-20T04:23:32.329Z,8.24
2017-11-20T04:24:42.162Z,8.22
2017-11-20T04:25:51.984Z,8.19
2017-11-20T04:27:01.781Z,8.21
2017-11-20T04:28:11.872Z,8.14
2017-11-20T04:29:21.940Z,8.06
2017-11-20T04:30:31.996Z,7.98
2017-11-20T04:31:41.843Z,8.04
2017-11-20T04:32:51.914Z,7.95
2017-11-20T04:34:01.737Z,8.01
2017-11-20T04:35:11.817Z,7.88
2017-11-20T04:36:21.618Z,7.83
2017-11-20T04:37:31.701Z,7.89
2017-11-20T04:38:41.775Z,7.88
2017-11-20T04:39:51.857Z,7.82
2017-11-20T04:41:01.933Z,7.74
2017-11-20T04:42:12.015Z,7.75
2017-11-20T04:43:22.096Z,7.74
2017-11-20T04:44:31.650Z,7.75
2017-11-20T04:45:41.704Z,7.73
2017-11-20T04:46:51.514Z,7.78
2017-11-20T04:48:01.085Z,7.8
2017-11-20T04:49:11.154Z,7.82
2017-11-20T04:50:21.231Z,7.7
2017-11-20T04:51:31.022Z,7.75
2017-11-20T04:52:40.839Z,7.77
2017-11-20T04:53:50.911Z,7.8
2017-11-20T04:55:00.982Z,7.74
2017-11-20T04:56:11.064Z,7.68
2017-11-20T04:57:21.142Z,7.73
2017-11-20T04:58:30.945Z,7.68
2017-11-20T04:59:41.014Z,7.73
2017-11-20T05:00:51.075Z,7.61
2017-11-20T05:02:00.902Z,7.73
2017-11-20T05:03:10.700Z,7.67
2017-11-20T05:04:20.551Z,7.59
2017-11-20T05:05:30.625Z,7.77
2017-11-20T05:06:40.491Z,7.67
2017-11-20T05:07:50.567Z,7.7
2017-11-20T05:09:00.380Z,7.67
2017-11-20T05:10:10.487Z,7.77
2017-11-20T05:11:20.302Z,7.7
2017-11-20T05:12:30.106Z,7.77
2017-11-20T05:13:39.904Z,7.82
2017-11-20T05:14:49.963Z,7.83
2017-11-20T05:15:59.769Z,7.82
2017-11-20T05:17:09.595Z,7.83
2017-11-20T05:18:19.422Z,7.83
2017-11-20T05:19:28.961Z,7.91
2017-11-20T05:20:39.003Z,7.88
2017-11-20T05:21:49.079Z,7.91
2017-11-20T05:22:59.151Z,7.99
2017-11-20T05:24:08.769Z,7.98
2017-11-20T05:25:18.289Z,7.99
2017-11-20T05:26:28.376Z,7.99
2017-11-20T05:27:38.463Z,7.91
2017-11-20T05:28:48.536Z,7.91
2017-11-20T05:29:58.617Z,8.01
2017-11-20T05:31:08.693Z,8.04
2017-11-20T05:32:18.493Z,7.93
2017-11-20T05:33:28.292Z,7.95
2017-11-20T05:34:38.368Z,7.95
2017-11-20T05:35:48.546Z,7.91
2017-11-20T05:36:58.120Z,7.88
2017-11-20T05:38:08.183Z,7.91
2017-11-20T05:39:18.257Z,8.01
2017-11-20T05:40:28.326Z,7.92
2017-11-20T05:41:38.122Z,8.03
2017-11-20T05:42:48.193Z,8.07
2017-11-20T05:43:58.277Z,8.13
2017-11-20T05:45:08.091Z,8.07
2017-11-20T05:46:18.185Z,8.13
2017-11-20T05:47:28.033Z,8.17
2017-11-20T05:48:38.100Z,8.22
2017-11-20T05:49:48.175Z,8.17
2017-11-20T05:50:58.245Z,8.17
2017-11-20T05:52:08.054Z,8.22
2017-11-20T05:53:17.862Z,8.26
2017-11-20T05:54:27.422Z,8.31
2017-11-20T05:55:37.485Z,8.36
2017-11-20T05:56:47.034Z,8.34
2017-11-20T05:57:56.851Z,8.49
2017-11-20T05:59:06.928Z,8.47
2017-11-20T06:00:17.030Z,8.46
2017-11-20T06:01:27.124Z,8.47
2017-11-20T06:02:36.944Z,8.46
2017-11-20T06:03:47.030Z,8.46
2017-11-20T06:04:57.149Z,8.57
2017-11-20T06:06:06.961Z,8.53
2017-11-20T06:07:17.040Z,8.49
2017-11-20T06:08:27.116Z,8.57
2017-11-20T06:09:37.194Z,8.54
2017-11-20T06:10:47.258Z,8.67
2017-11-20T06:11:56.528Z,8.67
2017-11-20T06:13:06.607Z,8.61
2017-11-20T06:14:16.686Z,8.58
2017-11-20T06:15:26.488Z,8.54
2017-11-20T06:16:36.560Z,8.58
2017-11-20T06:17:46.628Z,8.6
2017-11-20T06:18:56.692Z,8.67
2017-11-20T06:20:06.772Z,8.62
2017-11-20T06:21:16.847Z,8.64
2017-11-20T06:22:26.721Z,8.58
2017-11-20T06:23:36.820Z,8.72
2017-11-20T06:24:46.623Z,8.74
2017-11-20T06:25:56.689Z,8.72
2017-11-20T06:27:06.759Z,8.69
2017-11-20T06:28:16.887Z,8.85
2017-11-20T06:29:26.942Z,8.9
2017-11-20T06:30:37.027Z,8.89
2017-11-20T06:31:47.096Z,9.09
2017-11-20T06:32:56.905Z,9.08
2017-11-20T06:34:06.497Z,9.14
2017-11-20T06:35:16.323Z,9.17
2017-11-20T06:36:26.135Z,9.09
2017-11-20T06:37:35.962Z,9.16
2017-11-20T06:38:45.783Z,9.17
2017-11-20T06:39:55.646Z,9.14
2017-11-20T06:41:05.192Z,9.09
2017-11-20T06:42:15.014Z,9.21
2017-11-20T06:43:24.816Z,9.23
2017-11-20T06:44:34.931Z,9.3
2017-11-20T06:45:45.064Z,9.26
2017-11-20T06:46:54.869Z,9.38
2017-11-20T06:48:04.408Z,9.38
2017-11-20T06:49:14.492Z,9.38
2017-11-20T06:50:24.123Z,9.42
2017-11-20T06:51:34.222Z,9.53
2017-11-20T06:52:44.050Z,9.44
2017-11-20T06:53:53.582Z,9.55
2017-11-20T06:55:03.140Z,9.59
2017-11-20T06:56:13.219Z,9.53
2017-11-20T06:57:23.297Z,9.48
2017-11-20T06:58:33.389Z,9.42
2017-11-20T06:59:43.465Z,9.41
2017-11-20T07:00:53.530Z,9.42
2017-11-20T07:02:03.598Z,9.38
2017-11-20T07:03:13.735Z,9.38
2017-11-20T07:04:23.827Z,9.38
2017-11-20T07:05:33.643Z,9.38
2017-11-20T07:06:43.717Z,9.44
2017-11-20T07:07:53.787Z,9.39
2017-11-20T07:09:03.632Z,9.41
2017-11-20T07:10:13.445Z,9.38
2017-11-20T07:11:23.539Z,9.27
2017-11-20T07:12:33.357Z,9.26
2017-11-20T07:13:43.167Z,9.34
2017-11-20T07:14:53.029Z,9.21
2017-11-20T07:16:02.830Z,9.17
2017-11-20T07:17:12.636Z,9.19
2017-11-20T07:18:22.449Z,9.19
2017-11-20T07:19:32.269Z,9.26
2017-11-20T07:20:42.076Z,9.21
2017-11-20T07:21:51.623Z,9.26
2017-11-20T07:23:01.705Z,9.3
2017-11-20T07:24:11.791Z,9.3
2017-11-20T07:25:21.585Z,9.38
2017-11-20T07:26:31.483Z,9.34
2017-11-20T07:27:41.543Z,9.3
2017-11-20T07:28:51.354Z,9.3
2017-11-20T07:30:01.428Z,9.41
2017-11-20T07:31:11.246Z,9.53
2017-11-20T07:32:21.330Z,9.5
2017-11-20T07:33:31.419Z,9.67
2017-11-20T07:34:41.512Z,9.78
2017-11-20T07:35:51.612Z,9.77
2017-11-20T07:37:01.668Z,9.77
2017-11-20T07:38:11.784Z,9.9
2017-11-20T07:39:21.853Z,9.88
2017-11-20T07:40:31.934Z,9.9
2017-11-20T07:41:41.218Z,9.92
2017-11-20T07:42:51.022Z,10.02
2017-11-20T07:44:00.852Z,9.95
2017-11-20T07:45:11.033Z,9.99
2017-11-20T07:46:21.088Z,10.13
2017-11-20T07:47:31.176Z,10.25
2017-11-20T07:48:40.445Z,10.29
2017-11-20T07:49:50.580Z,10.23
2017-11-20T07:51:00.380Z,10.39
2017-11-20T07:52:10.463Z,10.41
2017-11-20T07:53:20.530Z,10.39
2017-11-20T07:54:30.340Z,10.47
2017-11-20T07:55:40.420Z,10.66
2017-11-20T07:56:49.973Z,10.7
2017-11-20T07:57:59.783Z,10.83
2017-11-20T07:59:09.331Z,10.79
2017-11-20T08:00:19.403Z,10.84
2017-11-20T08:01:29.542Z,10.88
2017-11-20T08:02:40.348Z,10.94
2017-11-20T08:03:50.433Z,11.03
2017-11-20T08:05:00.501Z,11.13
2017-11-20T08:06:10.574Z,11.21
2017-11-20T08:07:20.383Z,11.18
2017-11-20T08:08:30.458Z,11.3
2017-11-20T08:09:40.527Z,11.23
2017-11-20T08:10:50.602Z,11.24
2017-11-20T08:12:00.686Z,11.26
2017-11-20T08:13:10.275Z,11.34
2017-11-20T08:14:20.083Z,11.42
2017-11-20T08:15:29.899Z,11.38
2017-11-20T08:16:40.021Z,11.43
2017-11-20T08:17:49.837Z,11.35
2017-11-20T08:18:59.958Z,11.41
2017-11-20T08:20:09.821Z,11.43
2017-11-20T08:21:19.640Z,11.43
2017-11-20T08:22:29.760Z,11.46
2017-11-20T08:23:39.588Z,11.3
2017-11-20T08:24:49.687Z,11.27
2017-11-20T08:25:59.800Z,11.2
2017-11-20T08:27:09.617Z,11.09
2017-11-20T08:28:18.883Z,11.03
2017-11-20T08:29:28.710Z,11.16
2017-11-20T08:30:38.248Z,11.21
2017-11-20T08:31:48.065Z,11.18
2017-11-20T08:32:57.874Z,11.42
2017-11-20T08:34:07.954Z,11.48
2017-11-20T08:35:18.930Z,11.61
2017-11-20T08:36:28.749Z,11.68
2017-11-20T08:37:38.635Z,11.57
2017-11-20T08:38:48.767Z,11.52
2017-11-20T08:39:58.873Z,11.28
2017-11-20T08:41:08.986Z,11.16
2017-11-20T08:42:19.139Z,11.06
2017-11-20T08:43:29.038Z,10.98
2017-11-20T08:44:39.167Z,10.83
2017-11-20T08:45:49.006Z,10.8
2017-11-20T08:46:58.837Z,10.76
2017-11-20T08:48:08.977Z,10.66
2017-11-20T08:49:19.159Z,10.58
2017-11-20T08:50:29.021Z,10.59
2017-11-20T08:51:39.134Z,10.49
2017-11-20T08:52:48.982Z,10.39
2017-11-20T08:53:58.543Z,10.36
2017-11-20T08:55:08.701Z,10.29
2017-11-20T08:56:18.809Z,10.26
2017-11-20T08:57:28.916Z,10.28
2017-11-20T08:58:38.767Z,10.31
2017-11-20T08:59:48.879Z,10.18
2017-11-20T09:00:58.806Z,10.2
2017-11-20T09:02:08.941Z,10.28
2017-11-20T09:03:19.071Z,10.23
2017-11-20T09:04:29.216Z,10.39
2017-11-20T09:05:39.330Z,10.46
2017-11-20T09:06:49.213Z,10.41
2017-11-20T09:07:59.317Z,10.54
2017-11-20T09:09:09.426Z,10.69
2017-11-20T09:10:19.579Z,10.77
2017-11-20T09:11:29.431Z,10.77
2017-11-20T09:12:39.595Z,10.83
2017-11-20T09:13:49.449Z,10.94
2017-11-20T09:14:59.302Z,10.87
2017-11-20T09:16:10.613Z,10.95
2017-11-20T09:17:20.745Z,11.03
2017-11-20T09:18:30.898Z,11.1
2017-11-20T09:19:41.043Z,11.26
2017-11-20T09:20:51.175Z,11.26
2017-11-20T09:22:01.328Z,11.26
2017-11-20T09:23:11.155Z,11.33
2017-11-20T09:24:21.054Z,11.35
2017-11-20T09:25:31.167Z,11.48
2017-11-20T09:26:41.013Z,11.68
2017-11-20T09:27:50.861Z,11.75
2017-11-20T09:29:01.004Z,11.94
2017-11-20T09:30:11.110Z,12.01
2017-11-20T09:31:21.238Z,12.18
2017-11-20T09:32:31.363Z,12.25
2017-11-20T09:33:41.185Z,12.31
2017-11-20T09:34:51.031Z,12.45
2017-11-20T09:36:01.203Z,12.53
2017-11-20T09:37:10.779Z,12.53
2017-11-20T09:38:20.629Z,12.55
2017-11-20T09:39:30.752Z,12.58
2017-11-20T09:40:40.854Z,12.63
2017-11-20T09:41:51.026Z,12.8
2017-11-20T09:43:01.141Z,12.8
2017-11-20T09:44:10.976Z,12.7
2017-11-20T09:45:21.077Z,12.81
2017-11-20T09:46:31.359Z,13.03
2017-11-20T09:47:41.267Z,13.14
2017-11-20T09:48:51.105Z,13.16
2017-11-20T09:50:01.214Z,13.25
2017-11-20T09:51:10.796Z,13.35
2017-11-20T09:52:20.650Z,13.54
2017-11-20T09:53:30.826Z,13.73
2017-11-20T09:54:40.949Z,13.88
2017-11-20T09:55:50.627Z,14.05
2017-11-20T09:57:00.731Z,14.23
2017-11-20T09:58:10.855Z,14.21
2017-11-20T09:59:21.038Z,14.16
2017-11-20T10:00:31.156Z,14.13
2017-11-20T10:01:41.359Z,14.09
2017-11-20T10:02:51.479Z,13.94
2017-11-20T10:04:01.594Z,13.99
2017-11-20T10:05:11.766Z,13.94
2017-11-20T10:06:21.619Z,13.87
2017-11-20T10:07:31.762Z,13.88
2017-11-20T10:08:41.923Z,13.95
2017-11-20T10:09:52.036Z,13.94
2017-11-20T10:11:01.966Z,13.93
2017-11-20T10:12:12.087Z,13.86
2017-11-20T10:13:22.209Z,14.01
2017-11-20T10:14:32.053Z,14.31
2017-11-20T10:15:41.884Z,14.23
2017-11-20T10:16:51.777Z,14.2
2017-11-20T10:18:01.623Z,14.19
2017-11-20T10:19:11.188Z,14.26
2017-11-20T10:20:21.021Z,14.2
2017-11-20T10:21:30.616Z,14.16
2017-11-20T10:22:40.173Z,14.08
2017-11-20T10:23:50.275Z,13.99
2017-11-20T10:25:00.106Z,13.88
2017-11-20T10:26:09.924Z,13.81
2017-11-20T10:27:19.486Z,13.75
2017-11-20T10:28:29.634Z,13.69
2017-11-20T10:29:39.728Z,13.68
2017-11-20T10:30:49.841Z,13.62
2017-11-20T10:31:59.429Z,13.68
2017-11-20T10:33:09.546Z,13.58
2017-11-20T10:34:19.621Z,13.55
2017-11-20T10:35:29.452Z,13.63
2017-11-20T10:36:39.024Z,13.78
2017-11-20T10:37:49.123Z,13.86
2017-11-20T10:38:58.652Z,13.75
2017-11-20T10:40:08.787Z,13.54
2017-11-20T10:41:18.626Z,13.48
2017-11-20T10:42:29.230Z,13.37
2017-11-20T10:43:39.339Z,13.39
2017-11-20T10:44:48.898Z,13.4
2017-11-20T10:45:58.717Z,13.44
2017-11-20T10:47:08.822Z,13.36
2017-11-20T10:48:18.914Z,13.32
2017-11-20T10:49:30.230Z,13.17
2017-11-20T10:50:40.328Z,13.21
2017-11-20T10:51:49.967Z,13.27
2017-11-20T10:53:00.066Z,13.29
2017-11-20T10:54:10.172Z,13.29
2017-11-20T10:55:20.015Z,13.31
2017-11-20T10:56:30.092Z,13.36
2017-11-20T10:57:40.180Z,13.31
2017-11-20T10:58:50.015Z,13.35
2017-11-20T11:00:00.096Z,13.4
2017-11-20T11:01:10.195Z,13.32
2017-11-20T11:02:20.299Z,13.36
2017-11-20T11:03:29.936Z,13.44
2017-11-20T11:04:40.068Z,13.36
2017-11-20T11:05:50.161Z,13.39
2017-11-20T11:07:00.277Z,13.44
2017-11-20T11:08:09.861Z,13.57
2017-11-20T11:09:19.979Z,13.51
2017-11-20T11:10:29.821Z,13.54
2017-11-20T11:11:39.901Z,13.68
2017-11-20T11:12:49.471Z,13.65
2017-11-20T11:13:59.302Z,13.79
2017-11-20T11:15:08.634Z,13.88
2017-11-20T11:16:18.455Z,13.97
2017-11-20T11:17:28.565Z,14.06
2017-11-20T11:18:39.248Z,14.11
2017-11-20T11:19:49.115Z,14.06
2017-11-20T11:20:59.213Z,13.94
2017-11-20T11:22:09.305Z,13.86
2017-11-20T11:23:19.140Z,13.84
2017-11-20T11:24:29.263Z,13.75
2017-11-20T11:25:39.359Z,13.72
2017-11-20T11:26:49.434Z,13.69
2017-11-20T11:27:59.528Z,13.68
2017-11-20T11:29:09.640Z,13.68
2017-11-20T11:30:19.225Z,13.72
2017-11-20T11:31:29.355Z,13.72
2017-11-20T11:32:39.472Z,13.73
2017-11-20T11:33:49.311Z,13.7
2017-11-20T11:34:59.136Z,13.75
2017-11-20T11:36:09.005Z,13.7
2017-11-20T11:37:21.637Z,13.57
2017-11-20T11:38:31.459Z,13.65
2017-11-20T11:39:44.139Z,13.55
2017-11-20T11:40:54.232Z,13.58
2017-11-20T11:42:04.329Z,13.57
2017-11-20T11:43:14.431Z,13.5
2017-11-20T11:44:24.575Z,13.5
2017-11-20T11:45:34.673Z,13.36
2017-11-20T11:46:44.490Z,13.48
2017-11-20T11:47:54.570Z,13.5
2017-11-20T11:49:04.660Z,13.48
2017-11-20T11:50:14.749Z,13.55
2017-11-20T11:51:24.580Z,13.62
2017-11-20T11:52:34.677Z,13.62
2017-11-20T11:53:44.800Z,13.63
2017-11-20T11:54:54.911Z,13.73
2017-11-20T11:56:04.724Z,13.88
2017-11-20T11:57:14.805Z,13.86
2017-11-20T11:58:24.654Z,13.97
2017-11-20T11:59:34.751Z,14.05
2017-11-20T12:00:44.312Z,14.02
2017-11-20T12:01:54.210Z,13.95
2017-11-20T12:03:04.292Z,13.81
2017-11-20T12:04:14.387Z,13.88
2017-11-20T12:05:24.203Z,13.91
2017-11-20T12:06:33.777Z,13.88
2017-11-20T12:07:43.649Z,13.88
2017-11-20T12:08:53.472Z,13.97
2017-11-20T12:10:03.593Z,14.15
2017-11-20T12:11:13.688Z,14.41
2017-11-20T12:12:23.567Z,14.63
2017-11-20T12:13:33.721Z,14.48
2017-11-20T12:14:43.581Z,14.2
2017-11-20T12:15:53.660Z,13.95
2017-11-20T12:17:03.769Z,13.6
2017-11-20T12:18:14.694Z,13.48
2017-11-20T12:19:24.842Z,13.32
2017-11-20T12:20:34.982Z,13.57
2017-11-20T12:21:45.085Z,13.93
2017-11-20T12:22:55.222Z,14.09
2017-11-20T12:24:05.054Z,14.21
2017-11-20T12:25:14.966Z,14.46
2017-11-20T12:26:25.069Z,14.79
2017-11-20T12:27:35.145Z,14.9
2017-11-20T12:28:45.251Z,14.63
2017-11-20T12:29:55.067Z,14.56
2017-11-20T12:31:05.323Z,14.23
2017-11-20T12:32:14.619Z,14.13
2017-11-20T12:33:24.693Z,13.97
2017-11-20T12:34:34.511Z,14.08
2017-11-20T12:35:44.320Z,14.15
2017-11-20T12:36:54.188Z,14.33
2017-11-20T12:38:03.760Z,14.33
2017-11-20T12:39:13.850Z,14.16
2017-11-20T12:40:23.671Z,14.02
2017-11-20T12:41:33.781Z,13.9
2017-11-20T12:42:43.651Z,13.79
2017-11-20T12:43:53.469Z,13.66
2017-11-20T12:45:03.596Z,13.66
2017-11-20T12:46:13.431Z,13.86
2017-11-20T12:47:23.247Z,13.91
2017-11-20T12:48:33.484Z,13.93
2017-11-20T12:49:43.571Z,14.03
2017-11-20T12:50:53.664Z,13.99
2017-11-20T12:52:03.745Z,13.84
2017-11-20T12:53:13.823Z,13.68
2017-11-20T12:54:23.962Z,13.57
2017-11-20T12:55:33.781Z,13.51
2017-11-20T12:56:43.604Z,13.54
2017-11-20T12:57:53.443Z,13.48
2017-11-20T12:59:03.260Z,13.45
2017-11-20T13:00:13.334Z,13.47
2017-11-20T13:01:23.159Z,13.47
2017-11-20T13:02:32.983Z,13.44
2017-11-20T13:03:43.099Z,13.55
2017-11-20T13:04:52.972Z,13.5
2017-11-20T13:06:02.865Z,13.44
2017-11-20T13:07:12.431Z,13.45
2017-11-20T13:08:22.008Z,13.39
2017-11-20T13:09:31.855Z,13.35
2017-11-20T13:10:41.930Z,13.28
2017-11-20T13:11:52.068Z,13.54
2017-11-20T13:13:02.172Z,13.51
2017-11-20T13:14:12.023Z,13.37
2017-11-20T13:15:22.131Z,13.2
2017-11-20T13:16:31.693Z,13.09
2017-11-20T13:17:41.790Z,12.88
2017-11-20T13:18:51.894Z,12.74
2017-11-20T13:20:01.986Z,12.55
2017-11-20T13:21:11.556Z,12.55
2017-11-20T13:22:21.385Z,12.58
2017-11-20T13:23:32.366Z,12.61
2017-11-20T13:24:41.915Z,12.59
2017-11-20T13:25:52.037Z,12.51
2017-11-20T13:27:02.142Z,12.43
2017-11-20T13:28:11.986Z,12.43
2017-11-20T13:29:22.390Z,12.38
2017-11-20T13:30:32.212Z,12.36
2017-11-20T13:31:42.305Z,12.2
2017-11-20T13:32:52.149Z,12.15
2017-11-20T13:34:02.250Z,12.04
2017-11-20T13:35:12.401Z,12.07
2017-11-20T13:36:22.476Z,12.03
2017-11-20T13:37:32.566Z,12.07
2017-11-20T13:38:42.419Z,11.91
2017-11-20T13:39:52.513Z,11.97
2017-11-20T13:41:02.843Z,11.97
2017-11-20T13:42:12.664Z,12.03
2017-11-20T13:43:22.784Z,11.94
2017-11-20T13:44:32.354Z,11.94
2017-11-20T13:45:42.455Z,11.86
2017-11-20T13:46:52.608Z,11.91
2017-11-20T13:48:02.707Z,11.88
2017-11-20T13:49:12.792Z,11.75
2017-11-20T13:50:22.873Z,11.66
2017-11-20T13:51:33.031Z,11.67
2017-11-20T13:52:42.901Z,11.59
2017-11-20T13:53:52.989Z,11.59
2017-11-20T13:55:03.078Z,11.52
2017-11-20T13:56:12.917Z,11.38
2017-11-20T13:57:22.727Z,11.41
2017-11-20T13:58:32.876Z,11.33
2017-11-20T13:59:42.694Z,11.26
2017-11-20T14:00:52.240Z,11.2
2017-11-20T14:02:02.092Z,11.21
2017-11-20T14:03:12.183Z,11.2
2017-11-20T14:04:22.050Z,11.09
2017-11-20T14:05:32.124Z,11.03
2017-11-20T14:06:42.246Z,10.95
2017-11-20T14:07:53.295Z,11
2017-11-20T14:09:03.401Z,10.95
2017-11-20T14:10:13.487Z,10.9
2017-11-20T14:11:23.580Z,10.83
2017-11-20T14:12:33.139Z,10.9
2017-11-20T14:13:43.485Z,10.87
2017-11-20T14:14:53.579Z,10.87
2017-11-20T14:16:03.721Z,10.98
2017-11-20T14:17:13.552Z,10.83
2017-11-20T14:18:23.630Z,10.75
2017-11-20T14:19:33.728Z,10.66
2017-11-20T14:20:43.813Z,10.75
2017-11-20T14:21:53.979Z,10.69
2017-11-20T14:23:04.043Z,10.67
2017-11-20T14:24:13.935Z,10.59
2017-11-20T14:25:24.039Z,10.58
2017-11-20T14:26:34.116Z,10.54
2017-11-20T14:27:44.248Z,10.58
2017-11-20T14:28:53.792Z,10.51
2017-11-20T14:30:03.918Z,10.44
2017-11-20T14:31:13.753Z,10.44
2017-11-20T14:32:23.830Z,10.39
2017-11-20T14:33:34.003Z,10.36
2017-11-20T14:34:44.079Z,10.39
2017-11-20T14:35:54.152Z,10.32
2017-11-20T14:37:04.222Z,10.31
2017-11-20T14:38:14.338Z,10.26
2017-11-20T14:39:24.416Z,10.35
2017-11-20T14:40:34.248Z,10.21
2017-11-20T14:41:44.082Z,10.13
2017-11-20T14:42:54.180Z,10.21
2017-11-20T14:44:04.024Z,10.13
2017-11-20T14:45:13.906Z,10.11
2017-11-20T14:46:24.002Z,10.08
2017-11-20T14:47:34.104Z,9.95
2017-11-20T14:48:44.201Z,10.05
2017-11-20T14:49:54.284Z,9.98
2017-11-20T14:51:04.427Z,9.98
2017-11-20T14:52:14.265Z,9.85
2017-11-20T14:53:24.090Z,9.85
2017-11-20T14:54:34.179Z,9.82
2017-11-20T14:55:44.247Z,9.85
2017-11-20T14:56:54.342Z,9.75
2017-11-20T14:58:04.182Z,9.78
2017-11-20T14:59:14.002Z,9.77
2017-11-20T15:00:23.803Z,9.82
2017-11-20T15:01:33.350Z,9.66
2017-11-20T15:02:43.533Z,9.56
2017-11-20T15:03:53.614Z,9.64
2017-11-20T15:05:03.720Z,9.71
2017-11-20T15:06:13.832Z,9.55
2017-11-20T15:07:23.925Z,9.57
2017-11-20T15:08:34.024Z,9.52
2017-11-20T15:09:44.116Z,9.56
2017-11-20T15:10:53.939Z,9.5
2017-11-20T15:12:04.043Z,9.47
2017-11-20T15:13:13.869Z,9.45
2017-11-20T15:14:23.691Z,9.45
2017-11-20T15:15:33.551Z,9.45
2017-11-20T15:16:43.410Z,9.37
2017-11-20T15:17:53.510Z,9.3
2017-11-20T15:19:03.374Z,9.32
2017-11-20T15:20:13.465Z,9.38
2017-11-20T15:21:23.579Z,9.41
2017-11-20T15:22:33.135Z,9.37
2017-11-20T15:23:42.684Z,9.3
2017-11-20T15:24:52.521Z,9.27
2017-11-20T15:26:02.681Z,9.29
2017-11-20T15:27:11.959Z,9.37
2017-11-20T15:28:22.053Z,9.32
2017-11-20T15:29:32.196Z,9.26
2017-11-20T15:30:42.305Z,9.23
2017-11-20T15:31:52.446Z,9.19
2017-11-20T15:33:02.527Z,9.34
2017-11-20T15:34:12.612Z,9.29
2017-11-20T15:35:22.705Z,9.21
2017-11-20T15:36:32.795Z,9.29
2017-11-20T15:37:42.891Z,9.23
2017-11-20T15:38:52.992Z,9.19
2017-11-20T15:40:03.082Z,9.2
2017-11-20T15:41:13.161Z,9.26
2017-11-20T15:42:23.254Z,9.24
2017-11-20T15:43:33.136Z,9.21
2017-11-20T15:44:43.223Z,9.26
2017-11-20T15:45:53.358Z,9.21
2017-11-20T15:47:03.458Z,9.23
2017-11-20T15:48:13.548Z,9.23
2017-11-20T15:49:23.664Z,9.27
2017-11-20T15:50:33.492Z,9.2